createdAt,value
2019-03-05T00:02:06.189Z,6.30
2019-03-05T00:04:32.877Z,6.20
2019-03-05T00:06:59.528Z,6.40
2019-03-05T00:09:26.300Z,6.40
2019-03-05T00:11:52.956Z,6.20
2019-03-05T00:14:21.630Z,6.30
2019-03-05T00:16:48.409Z,6.20
2019-03-05T00:19:15.149Z,6.20
2019-03-05T00:21:41.840Z,6.20
2019-03-05T00:24:45.864Z,6.20
2019-03-05T00:27:12.502Z,6.20
2019-03-05T00:29:51.891Z,6.20
2019-03-05T00:32:18.524Z,6.10
2019-03-05T00:35:11.427Z,6.10
2019-03-05T00:37:41.684Z,6.10
2019-03-05T00:40:26.886Z,6.20
2019-03-05T00:43:05.215Z,6.20
2019-03-05T00:45:41.572Z,6.20
2019-03-05T00:48:14.945Z,6.20
2019-03-05T00:50:54.208Z,6.20
2019-03-05T00:53:36.410Z,6.30
2019-03-05T00:56:21.740Z,6.20
2019-03-05T00:58:52.040Z,6.20
2019-03-05T01:01:22.288Z,6.20
2019-03-05T01:04:10.516Z,6.00
2019-03-05T01:06:37.605Z,6.00
2019-03-05T01:09:08.349Z,6.20
2019-03-05T01:11:35.005Z,6.20
2019-03-05T01:14:02.645Z,6.20
2019-03-05T01:16:31.228Z,6.10
2019-03-05T01:18:57.867Z,6.20
2019-03-05T01:21:24.647Z,6.20
2019-03-05T01:23:51.289Z,6.30
2019-03-05T01:26:18.245Z,6.30
2019-03-05T01:28:45.007Z,6.20
2019-03-05T01:31:16.096Z,6.20
2019-03-05T01:33:44.967Z,6.30
2019-03-05T01:36:19.287Z,6.40
2019-03-05T01:38:50.692Z,6.30
2019-03-05T01:41:17.504Z,6.40
2019-03-05T01:43:44.139Z,6.20
2019-03-05T01:46:10.809Z,6.30
2019-03-05T01:48:37.441Z,6.20
2019-03-05T01:51:04.114Z,6.30
2019-03-05T01:53:30.772Z,6.40
2019-03-05T01:55:58.731Z,6.40
2019-03-05T01:58:25.430Z,6.30
2019-03-05T02:00:52.109Z,6.40
2019-03-05T02:03:18.784Z,6.20
2019-03-05T02:05:46.061Z,6.20
2019-03-05T02:08:12.855Z,6.30
2019-03-05T02:10:39.681Z,6.40
2019-03-05T02:13:06.354Z,6.40
2019-03-05T02:15:33.005Z,6.30
2019-03-05T02:17:59.684Z,6.30
2019-03-05T02:20:26.339Z,6.30
2019-03-05T02:23:02.723Z,6.30
2019-03-05T02:25:36.023Z,6.10
2019-03-05T02:28:24.515Z,6.20
2019-03-05T02:31:03.360Z,6.20
2019-03-05T02:33:45.324Z,6.30
2019-03-05T02:36:15.698Z,6.20
2019-03-05T02:39:05.735Z,6.30
2019-03-05T02:41:50.918Z,6.20
2019-03-05T02:44:44.816Z,6.30
2019-03-05T02:47:27.148Z,6.30
2019-03-05T02:50:14.017Z,6.30
2019-03-05T02:53:16.204Z,6.40
2019-03-05T02:55:49.241Z,6.40
2019-03-05T02:58:15.527Z,6.30
2019-03-05T03:01:01.299Z,6.40
2019-03-05T03:03:35.925Z,6.30
2019-03-05T03:06:07.509Z,6.30
2019-03-05T03:08:34.308Z,6.30
2019-03-05T03:11:00.973Z,6.20
2019-03-05T03:13:27.635Z,6.40
2019-03-05T03:15:54.289Z,6.30
2019-03-05T03:18:21.028Z,6.50
2019-03-05T03:20:47.682Z,6.40
2019-03-05T03:23:14.332Z,6.20
2019-03-05T03:25:40.961Z,6.20
2019-03-05T03:28:07.645Z,6.00
2019-03-05T03:30:34.309Z,6.10
2019-03-05T03:33:00.957Z,6.00
2019-03-05T03:35:27.579Z,6.00
2019-03-05T03:37:54.349Z,6.00
2019-03-05T03:40:21.125Z,5.90
2019-03-05T03:42:47.822Z,6.00
2019-03-05T03:45:16.423Z,5.90
2019-03-05T03:47:43.068Z,5.90
2019-03-05T03:50:09.963Z,5.90
2019-03-05T03:52:36.621Z,5.90
2019-03-05T03:55:05.416Z,5.90
2019-03-05T03:57:32.068Z,5.60
2019-03-05T03:59:58.807Z,5.50
2019-03-05T04:02:25.496Z,5.60
2019-03-05T04:04:52.121Z,5.70
2019-03-05T04:07:18.801Z,5.60
2019-03-05T04:09:45.429Z,5.50
2019-03-05T04:12:12.230Z,5.40
2019-03-05T04:14:39.287Z,5.60
2019-03-05T04:17:06.007Z,5.40
2019-03-05T04:19:33.039Z,5.40
2019-03-05T04:21:59.663Z,5.50
2019-03-05T04:24:26.343Z,5.50
2019-03-05T04:26:52.972Z,5.50
2019-03-05T04:29:19.656Z,5.50
2019-03-05T04:31:46.279Z,5.50
2019-03-05T04:34:12.971Z,5.50
2019-03-05T04:36:39.596Z,5.60
2019-03-05T04:39:09.872Z,5.70
2019-03-05T04:41:36.499Z,5.60
2019-03-05T04:44:03.177Z,5.70
2019-03-05T04:46:31.715Z,5.70
2019-03-05T04:49:00.284Z,5.80
2019-03-05T04:51:28.851Z,5.60
2019-03-05T04:53:55.532Z,5.50
2019-03-05T04:56:22.194Z,5.60
2019-03-05T04:58:48.852Z,5.70
2019-03-05T05:01:15.513Z,5.70
2019-03-05T05:03:42.167Z,5.70
2019-03-05T05:06:08.824Z,5.80
2019-03-05T05:08:35.454Z,5.70
2019-03-05T05:11:02.138Z,5.70
2019-03-05T05:13:28.759Z,5.60
2019-03-05T05:15:55.384Z,5.60
2019-03-05T05:18:22.063Z,5.60
2019-03-05T05:20:48.707Z,5.50
2019-03-05T05:23:15.384Z,5.60
2019-03-05T05:25:41.904Z,5.70
2019-03-05T05:28:08.625Z,5.80
2019-03-05T05:30:39.793Z,5.70
2019-03-05T05:33:07.245Z,5.80
2019-03-05T05:35:33.984Z,5.80
2019-03-05T05:38:00.916Z,5.70
2019-03-05T05:40:36.990Z,5.70
2019-03-05T05:43:05.983Z,5.70
2019-03-05T05:45:43.480Z,5.70
2019-03-05T05:48:10.337Z,5.80
2019-03-05T05:50:37.054Z,5.60
2019-03-05T05:53:03.730Z,5.70
2019-03-05T05:55:30.517Z,5.80
2019-03-05T05:57:57.156Z,5.70
2019-03-05T06:00:23.832Z,5.80
2019-03-05T06:02:50.492Z,5.70
2019-03-05T06:05:17.157Z,5.80
2019-03-05T06:07:43.784Z,5.80
2019-03-05T06:10:11.347Z,5.80
2019-03-05T06:12:57.867Z,5.90
2019-03-05T06:15:24.936Z,5.90
2019-03-05T06:17:51.491Z,5.90
2019-03-05T06:20:18.131Z,6.00
2019-03-05T06:22:44.927Z,5.90
2019-03-05T06:25:12.979Z,5.90
2019-03-05T06:27:39.671Z,5.90
2019-03-05T06:30:17.764Z,5.80
2019-03-05T06:32:44.471Z,5.80
2019-03-05T06:35:11.461Z,5.90
2019-03-05T06:37:38.112Z,5.90
2019-03-05T06:40:14.100Z,5.90
2019-03-05T06:42:42.011Z,6.00
2019-03-05T06:45:14.604Z,5.90
2019-03-05T06:47:41.237Z,5.90
2019-03-05T06:50:10.223Z,5.80
2019-03-05T06:52:36.844Z,5.80
2019-03-05T06:55:06.528Z,5.80
2019-03-05T06:57:33.259Z,5.80
2019-03-05T07:00:00.055Z,5.90
2019-03-05T07:02:26.880Z,5.70
2019-03-05T07:04:56.281Z,5.80
2019-03-05T07:07:23.632Z,5.80
2019-03-05T07:09:59.909Z,6.00
2019-03-05T07:12:30.489Z,6.00
2019-03-05T07:15:16.109Z,5.90
2019-03-05T07:17:52.012Z,6.00
2019-03-05T07:20:43.552Z,5.90
2019-03-05T07:23:19.452Z,5.90
2019-03-05T07:25:46.131Z,6.00
2019-03-05T07:28:12.758Z,6.00
2019-03-05T07:30:39.412Z,6.10
2019-03-05T07:33:06.307Z,6.00
2019-03-05T07:35:33.497Z,5.90
2019-03-05T07:38:00.834Z,6.00
2019-03-05T07:40:27.435Z,6.00
2019-03-05T07:42:54.118Z,6.00
2019-03-05T07:45:20.757Z,5.90
2019-03-05T07:47:47.445Z,6.00
2019-03-05T07:50:15.213Z,5.80
2019-03-05T07:52:41.973Z,5.90
2019-03-05T07:55:13.964Z,5.80
2019-03-05T07:57:39.550Z,6.00
2019-03-05T08:00:09.909Z,6.10
2019-03-05T08:02:36.708Z,6.00
2019-03-05T08:05:04.352Z,6.00
2019-03-05T08:07:31.188Z,5.90
2019-03-05T08:10:01.424Z,5.90
2019-03-05T08:12:46.811Z,5.90
2019-03-05T08:16:01.695Z,6.00
2019-03-05T08:18:19.677Z,5.80
2019-03-05T08:20:46.344Z,5.90
2019-03-05T08:23:13.127Z,5.70
2019-03-05T08:25:39.953Z,5.80
2019-03-05T08:28:06.599Z,5.80
2019-03-05T08:30:33.379Z,5.80
2019-03-05T08:33:00.052Z,5.80
2019-03-05T08:35:26.881Z,5.70
2019-03-05T08:37:53.545Z,5.70
2019-03-05T08:40:41.949Z,5.60
2019-03-05T08:43:08.782Z,5.70
2019-03-05T08:45:37.102Z,5.60
2019-03-05T08:48:03.944Z,5.60
2019-03-05T08:50:30.655Z,5.70
2019-03-05T08:52:57.325Z,5.70
2019-03-05T08:55:24.047Z,5.70
2019-03-05T08:57:51.076Z,5.70
2019-03-05T09:00:20.033Z,5.80
2019-03-05T09:02:48.852Z,5.90
2019-03-05T09:05:16.771Z,5.80
2019-03-05T09:07:44.927Z,5.90
2019-03-05T09:10:17.503Z,5.80
2019-03-05T09:12:44.164Z,5.60
2019-03-05T09:15:13.861Z,5.70
2019-03-05T09:17:40.636Z,5.60
2019-03-05T09:20:15.931Z,5.60
2019-03-05T09:22:42.632Z,5.70
2019-03-05T09:25:12.164Z,5.50
2019-03-05T09:27:38.845Z,5.60
2019-03-05T09:30:12.048Z,5.40
2019-03-05T09:32:38.820Z,5.50
2019-03-05T09:35:08.976Z,5.30
2019-03-05T09:37:35.624Z,5.30
2019-03-05T09:40:04.086Z,5.40
2019-03-05T09:42:39.515Z,5.40
2019-03-05T09:44:59.405Z,5.40
2019-03-05T09:47:26.060Z,5.40
2019-03-05T09:49:52.741Z,5.30
2019-03-05T09:52:19.376Z,5.50
2019-03-05T09:54:46.188Z,5.70
2019-03-05T09:57:12.804Z,5.60
2019-03-05T09:59:39.513Z,5.70
2019-03-05T10:02:06.333Z,5.60
2019-03-05T10:04:33.029Z,5.60
2019-03-05T10:06:59.659Z,6.00
2019-03-05T10:09:26.319Z,6.30
2019-03-05T10:11:56.680Z,6.10
2019-03-05T10:14:21.544Z,6.10
2019-03-05T10:16:48.308Z,6.50
2019-03-05T10:19:14.964Z,6.70
2019-03-05T10:21:46.260Z,7.00
2019-03-05T10:24:11.033Z,6.90
2019-03-05T10:26:37.893Z,6.90
2019-03-05T10:29:06.037Z,7.00
2019-03-05T10:31:33.449Z,7.40
2019-03-05T10:34:00.589Z,7.10
2019-03-05T10:36:27.551Z,7.30
2019-03-05T10:38:57.672Z,7.20
2019-03-05T10:41:23.569Z,7.40
2019-03-05T10:43:50.536Z,7.30
2019-03-05T10:46:17.190Z,7.40
2019-03-05T10:48:43.989Z,7.60
2019-03-05T10:51:10.620Z,7.90
2019-03-05T10:53:37.352Z,7.60
2019-03-05T10:56:04.681Z,7.40
2019-03-05T10:58:34.257Z,7.50
2019-03-05T11:00:59.926Z,7.40
2019-03-05T11:03:29.770Z,7.30
2019-03-05T11:05:57.000Z,7.30
2019-03-05T11:08:24.848Z,7.50
2019-03-05T11:10:52.618Z,8.20
2019-03-05T11:13:19.456Z,8.20
2019-03-05T11:15:48.812Z,8.60
2019-03-05T11:18:15.632Z,8.50
2019-03-05T11:20:42.386Z,8.70
2019-03-05T11:23:11.579Z,8.60
2019-03-05T11:25:37.607Z,8.70
2019-03-05T11:28:04.232Z,8.70
2019-03-05T11:30:36.340Z,8.30
2019-03-05T11:33:02.046Z,8.20
2019-03-05T11:35:30.031Z,8.20
2019-03-05T11:37:56.708Z,7.70
2019-03-05T11:40:23.839Z,8.10
2019-03-05T11:42:50.500Z,8.00
2019-03-05T11:45:25.863Z,8.10
2019-03-05T11:47:52.936Z,7.80
2019-03-05T11:50:19.888Z,8.10
2019-03-05T11:52:46.524Z,8.20
2019-03-05T11:55:25.111Z,7.90
2019-03-05T11:57:51.739Z,8.20
2019-03-05T12:00:39.276Z,8.20
2019-03-05T12:03:06.053Z,8.40
2019-03-05T12:05:32.732Z,8.30
2019-03-05T12:07:59.402Z,8.80
2019-03-05T12:10:26.043Z,8.10
2019-03-05T12:12:53.017Z,8.20
2019-03-05T12:15:20.981Z,8.50
2019-03-05T12:17:48.244Z,8.50
2019-03-05T12:20:14.873Z,9.00
2019-03-05T12:22:41.609Z,8.70
2019-03-05T12:25:11.892Z,8.50
2019-03-05T12:27:38.573Z,8.70
2019-03-05T12:30:08.883Z,8.40
2019-03-05T12:32:35.579Z,8.40
2019-03-05T12:35:02.448Z,8.40
2019-03-05T12:37:29.069Z,8.50
2019-03-05T12:39:56.280Z,8.60
2019-03-05T12:42:23.021Z,8.30
2019-03-05T12:44:49.767Z,8.30
2019-03-05T12:47:16.395Z,8.50
2019-03-05T12:49:43.145Z,8.60
2019-03-05T12:52:09.875Z,8.90
2019-03-05T12:54:36.526Z,8.80
2019-03-05T12:57:03.392Z,8.80
2019-03-05T12:59:30.013Z,9.30
2019-03-05T13:01:56.736Z,9.70
2019-03-05T13:04:23.582Z,9.20
2019-03-05T13:06:51.032Z,9.20
2019-03-05T13:09:19.160Z,9.50
2019-03-05T13:11:46.579Z,10.10
2019-03-05T13:14:14.648Z,10.20
2019-03-05T13:16:41.374Z,9.70
2019-03-05T13:19:09.472Z,9.20
2019-03-05T13:21:36.466Z,9.20
2019-03-05T13:24:03.209Z,9.60
2019-03-05T13:26:29.904Z,9.10
2019-03-05T13:28:56.608Z,9.00
2019-03-05T13:31:23.309Z,8.70
2019-03-05T13:33:50.290Z,8.90
2019-03-05T13:36:16.987Z,9.00
2019-03-05T13:38:45.213Z,9.00
2019-03-05T13:41:15.581Z,8.70
2019-03-05T13:43:41.181Z,8.70
2019-03-05T13:46:08.802Z,8.10
2019-03-05T13:48:57.799Z,7.60
2019-03-05T13:51:29.059Z,8.10
2019-03-05T13:54:19.080Z,8.10
2019-03-05T13:57:04.827Z,8.30
2019-03-05T13:59:44.168Z,8.40
2019-03-05T14:02:12.604Z,8.10
2019-03-05T14:04:59.686Z,8.40
2019-03-05T14:07:58.044Z,8.30
2019-03-05T14:10:26.121Z,8.40
2019-03-05T14:12:52.647Z,8.70
2019-03-05T14:15:20.628Z,8.70
2019-03-05T14:17:47.377Z,8.70
2019-03-05T14:20:15.365Z,8.70
2019-03-05T14:22:42.138Z,9.00
2019-03-05T14:25:11.829Z,8.70
2019-03-05T14:27:38.819Z,8.70
2019-03-05T14:30:12.269Z,8.90
2019-03-05T14:32:39.083Z,8.90
2019-03-05T14:35:08.346Z,8.90
2019-03-05T14:37:35.324Z,8.90
2019-03-05T14:40:22.886Z,8.80
2019-03-05T14:42:32.015Z,8.70
2019-03-05T14:44:58.650Z,8.80
2019-03-05T14:47:25.447Z,8.90
2019-03-05T14:49:52.107Z,8.80
2019-03-05T14:52:18.787Z,8.70
2019-03-05T14:54:45.448Z,8.70
2019-03-05T14:57:12.188Z,8.70
2019-03-05T14:59:38.886Z,8.80
2019-03-05T15:02:05.720Z,8.80
2019-03-05T15:04:32.399Z,8.80
2019-03-05T15:06:59.010Z,8.70
2019-03-05T15:09:25.936Z,8.70
2019-03-05T15:11:52.607Z,8.70
2019-03-05T15:14:19.280Z,8.70
2019-03-05T15:16:46.002Z,8.70
2019-03-05T15:19:21.383Z,8.60
2019-03-05T15:21:41.577Z,8.30
2019-03-05T15:24:08.193Z,8.50
2019-03-05T15:26:35.014Z,8.60
2019-03-05T15:29:01.795Z,8.50
2019-03-05T15:31:28.467Z,8.70
2019-03-05T15:33:55.264Z,8.50
2019-03-05T15:36:24.008Z,8.50
2019-03-05T15:38:51.025Z,8.50
2019-03-05T15:41:17.768Z,8.40
2019-03-05T15:43:44.409Z,8.40
2019-03-05T15:46:11.122Z,8.50
2019-03-05T15:48:37.753Z,8.40
2019-03-05T15:51:04.547Z,8.40
2019-03-05T15:53:31.181Z,8.40
2019-03-05T15:55:57.986Z,8.30
2019-03-05T15:58:24.646Z,8.40
2019-03-05T16:00:51.290Z,8.20
2019-03-05T16:03:18.054Z,8.50
2019-03-05T16:05:45.017Z,8.40
2019-03-05T16:08:11.697Z,8.30
2019-03-05T16:10:38.448Z,8.30
2019-03-05T16:13:05.235Z,8.30
2019-03-05T16:15:31.873Z,8.30
2019-03-05T16:18:01.415Z,8.20
2019-03-05T16:20:27.457Z,8.30
2019-03-05T16:22:56.779Z,8.40
2019-03-05T16:25:23.898Z,8.50
2019-03-05T16:27:50.518Z,8.40
2019-03-05T16:30:34.289Z,8.20
2019-03-05T16:33:09.903Z,8.30
2019-03-05T16:35:44.073Z,8.30
2019-03-05T16:38:27.718Z,8.30
2019-03-05T16:40:56.329Z,8.40
2019-03-05T16:43:24.946Z,8.40
2019-03-05T16:46:02.580Z,8.40
2019-03-05T16:48:43.171Z,8.20
2019-03-05T16:51:11.799Z,8.30
2019-03-05T16:53:40.348Z,8.30
2019-03-05T16:56:11.457Z,8.20
2019-03-05T16:58:40.013Z,8.20
2019-03-05T17:01:27.224Z,8.10
2019-03-05T17:04:04.622Z,8.30
2019-03-05T17:06:35.824Z,8.30
2019-03-05T17:09:06.281Z,8.20
2019-03-05T17:11:40.674Z,8.10
2019-03-05T17:14:07.618Z,8.10
2019-03-05T17:16:35.000Z,8.10
2019-03-05T17:19:01.796Z,8.20
2019-03-05T17:21:28.490Z,8.10
2019-03-05T17:23:55.137Z,8.20
2019-03-05T17:26:21.791Z,8.10
2019-03-05T17:28:48.460Z,8.10
2019-03-05T17:31:15.105Z,7.90
2019-03-05T17:33:41.773Z,7.80
2019-03-05T17:36:08.413Z,7.80
2019-03-05T17:38:35.088Z,7.60
2019-03-05T17:41:01.728Z,7.40
2019-03-05T17:43:28.488Z,7.50
2019-03-05T17:45:55.197Z,7.40
2019-03-05T17:48:21.934Z,7.40
2019-03-05T17:50:48.712Z,7.30
2019-03-05T17:53:15.388Z,7.30
2019-03-05T17:55:42.278Z,7.40
2019-03-05T17:58:09.010Z,7.20
2019-03-05T18:00:37.566Z,7.30
2019-03-05T18:03:04.285Z,7.40
2019-03-05T18:05:31.079Z,7.40
2019-03-05T18:07:57.695Z,7.30
2019-03-05T18:10:24.393Z,7.40
2019-03-05T18:12:51.052Z,7.50
2019-03-05T18:15:17.706Z,7.50
2019-03-05T18:17:44.359Z,7.50
2019-03-05T18:20:13.897Z,7.50
2019-03-05T18:22:40.552Z,7.40
2019-03-05T18:25:10.285Z,7.30
2019-03-05T18:27:37.166Z,7.40
2019-03-05T18:30:07.409Z,7.30
2019-03-05T18:32:34.087Z,7.20
2019-03-05T18:35:00.763Z,7.10
2019-03-05T18:37:27.618Z,7.00
2019-03-05T18:39:54.378Z,7.00
2019-03-05T18:42:21.039Z,6.90
2019-03-05T18:44:47.714Z,6.90
2019-03-05T18:47:14.408Z,6.80
2019-03-05T18:49:41.070Z,6.90
2019-03-05T18:52:07.856Z,6.80
2019-03-05T18:54:34.493Z,6.90
2019-03-05T18:57:01.255Z,6.80
2019-03-05T18:59:27.908Z,6.80
2019-03-05T19:01:54.532Z,6.60
2019-03-05T19:04:21.185Z,6.60
2019-03-05T19:06:48.102Z,6.60
2019-03-05T19:09:14.796Z,6.60
2019-03-05T19:11:41.491Z,6.70
2019-03-05T19:14:08.112Z,6.70
2019-03-05T19:16:34.728Z,6.70
2019-03-05T19:19:01.508Z,6.60
2019-03-05T19:21:28.177Z,6.40
2019-03-05T19:23:54.804Z,6.40
2019-03-05T19:26:21.436Z,6.40
2019-03-05T19:28:48.119Z,6.30
2019-03-05T19:31:14.752Z,6.20
2019-03-05T19:33:41.446Z,6.20
2019-03-05T19:36:08.072Z,6.40
2019-03-05T19:38:34.854Z,6.40
2019-03-05T19:41:01.609Z,6.40
2019-03-05T19:43:28.233Z,6.50
2019-03-05T19:45:54.892Z,6.50
2019-03-05T19:48:21.699Z,6.50
2019-03-05T19:50:48.356Z,6.40
2019-03-05T19:53:15.161Z,6.60
2019-03-05T19:55:41.817Z,6.40
2019-03-05T19:58:14.266Z,6.30
2019-03-05T20:00:58.931Z,6.30
2019-03-05T20:03:25.653Z,6.40
2019-03-05T20:05:52.324Z,6.30
2019-03-05T20:08:19.062Z,6.10
2019-03-05T20:10:45.873Z,6.00
2019-03-05T20:13:12.633Z,6.00
2019-03-05T20:15:39.373Z,6.00
2019-03-05T20:18:07.357Z,6.10
2019-03-05T20:20:34.426Z,6.10
2019-03-05T20:23:01.059Z,5.60
2019-03-05T20:25:29.035Z,5.60
2019-03-05T20:27:55.768Z,5.90
2019-03-05T20:30:23.328Z,5.90
2019-03-05T20:32:50.018Z,5.70
2019-03-05T20:35:17.297Z,5.70
2019-03-05T20:37:44.746Z,6.10
2019-03-05T20:40:27.467Z,5.70
2019-03-05T20:42:54.209Z,5.70
2019-03-05T20:45:33.574Z,5.80
2019-03-05T20:48:00.280Z,5.70
2019-03-05T20:50:26.937Z,5.30
2019-03-05T20:53:13.468Z,5.30
2019-03-05T20:55:40.122Z,5.30
2019-03-05T20:58:06.823Z,5.20
2019-03-05T21:00:34.948Z,5.40
2019-03-05T21:03:03.884Z,5.50
2019-03-05T21:05:40.717Z,5.20
2019-03-05T21:08:07.401Z,5.30
2019-03-05T21:10:34.369Z,5.50
2019-03-05T21:13:02.698Z,5.30
2019-03-05T21:15:30.792Z,5.30
2019-03-05T21:17:57.444Z,5.40
2019-03-05T21:20:24.112Z,5.50
2019-03-05T21:22:50.744Z,5.40
2019-03-05T21:25:18.510Z,5.30
2019-03-05T21:27:45.436Z,5.30
2019-03-05T21:30:23.556Z,5.30
2019-03-05T21:32:50.284Z,5.60
2019-03-05T21:35:17.024Z,5.70
2019-03-05T21:37:43.701Z,5.40
2019-03-05T21:40:21.706Z,5.50
2019-03-05T21:42:48.383Z,5.30
2019-03-05T21:45:17.801Z,5.30
2019-03-05T21:47:44.496Z,5.10
2019-03-05T21:50:13.073Z,5.10
2019-03-05T21:52:39.734Z,5.20
2019-03-05T21:55:08.923Z,5.10
2019-03-05T21:57:35.552Z,5.30
2019-03-05T22:00:05.036Z,5.10
2019-03-05T22:02:31.662Z,5.30
2019-03-05T22:04:58.337Z,5.20
2019-03-05T22:07:25.098Z,5.20
2019-03-05T22:09:51.844Z,5.30
2019-03-05T22:12:18.481Z,5.20
2019-03-05T22:14:45.110Z,5.00
2019-03-05T22:17:11.919Z,5.10
2019-03-05T22:19:38.586Z,5.00
2019-03-05T22:22:05.226Z,5.00
2019-03-05T22:24:31.855Z,4.80
2019-03-05T22:26:58.542Z,5.00
2019-03-05T22:29:25.215Z,5.00
2019-03-05T22:31:51.828Z,5.10
2019-03-05T22:34:18.460Z,5.10
2019-03-05T22:36:45.093Z,4.70
2019-03-05T22:39:11.770Z,4.90
2019-03-05T22:41:38.471Z,4.90
2019-03-05T22:44:05.137Z,4.90
2019-03-05T22:46:31.869Z,4.80
2019-03-05T22:48:58.597Z,4.90
2019-03-05T22:51:25.211Z,5.00
2019-03-05T22:53:51.904Z,4.90
2019-03-05T22:56:18.645Z,4.90
2019-03-05T22:58:45.326Z,4.80
2019-03-05T23:01:12.291Z,4.90
2019-03-05T23:03:39.733Z,4.90
2019-03-05T23:06:09.527Z,5.10
2019-03-05T23:08:36.272Z,4.90
2019-03-05T23:11:03.145Z,4.80
2019-03-05T23:13:30.097Z,4.70
2019-03-05T23:15:57.401Z,4.70
2019-03-05T23:18:24.065Z,4.70
2019-03-05T23:20:52.599Z,4.70
2019-03-05T23:23:19.420Z,4.60
2019-03-05T23:25:46.080Z,4.80
2019-03-05T23:28:12.843Z,4.60
2019-03-05T23:30:39.908Z,4.60
2019-03-05T23:33:06.674Z,4.70
2019-03-05T23:35:33.335Z,4.80
2019-03-05T23:37:59.978Z,4.80
2019-03-05T23:40:26.646Z,4.80
2019-03-05T23:42:53.287Z,4.80
2019-03-05T23:45:20.038Z,4.70
2019-03-05T23:47:46.766Z,4.70
2019-03-05T23:50:14.565Z,4.90
2019-03-05T23:52:42.343Z,4.80
2019-03-05T23:55:09.720Z,4.80
2019-03-05T23:57:36.340Z,4.80
